Time;durP1;ratioP1;P1;durP2;ratioP2;P2;SDS_P1;SDS_P2;PMS_P1;PMS_P2;Temp;Humidity;BMP_temperature;BMP_pressure;BME280_temperature;BME280_humidity;BME280_pressure;Samples;Min_cycle;Max_cycle;Signal;HPM_P1;HPM_P2
2024/03/12 00:01:22;;;;;;;49.03;26.67;;;;;;;;;;5065089;28;20032;-87
2024/03/12 00:03:49;;;;;;;45.58;25.67;;;;;;;;;;5062663;28;20485;-87
2024/03/12 00:06:15;;;;;;;48.85;26.35;;;;;;;;;;5053535;28;20052;-87
2024/03/12 00:08:42;;;;;;;50.88;26.80;;;;;;;;;;5068415;28;20553;-88
2024/03/12 00:11:10;;;;;;;50.85;26.85;;;;;;;;;;5074709;28;20055;-87
2024/03/12 00:13:35;;;;;;;44.80;25.10;;;;;;;;;;5064683;28;20032;-87
2024/03/12 00:16:01;;;;;;;47.25;26.55;;;;;;;;;;5061830;28;20024;-84
2024/03/12 00:18:26;;;;;;;45.67;26.42;;;;;;;;;;5065291;28;20060;-85
2024/03/12 00:20:55;;;;;;;46.75;26.27;;;;;;;;;;5061678;28;20025;-84
2024/03/12 00:23:25;;;;;;;50.20;27.20;;;;;;;;;;5064083;28;20127;-85
2024/03/12 00:25:50;;;;;;;47.50;25.80;;;;;;;;;;5063292;28;20029;-84
2024/03/12 00:28:16;;;;;;;45.92;26.08;;;;;;;;;;5064426;28;20069;-85
2024/03/12 00:30:47;;;;;;;46.15;25.70;;;;;;;;;;5063550;28;20025;-85
2024/03/12 00:33:12;;;;;;;47.92;24.90;;;;;;;;;;5063696;28;20022;-85
2024/03/12 00:35:42;;;;;;;47.88;25.60;;;;;;;;;;5063443;28;20028;-86
2024/03/12 00:38:08;;;;;;;52.13;26.73;;;;;;;;;;5062335;28;20415;-85
2024/03/12 00:40:33;;;;;;;46.28;25.67;;;;;;;;;;5057956;28;20038;-85
2024/03/12 00:43:00;;;;;;;50.67;27.08;;;;;;;;;;5065723;28;20107;-85
2024/03/12 00:45:29;;;;;;;50.25;26.40;;;;;;;;;;5063757;28;20028;-86
2024/03/12 00:47:54;;;;;;;50.20;25.33;;;;;;;;;;5060938;28;20147;-85
2024/03/12 00:50:21;;;;;;;47.55;25.65;;;;;;;;;;5064382;28;20107;-87
2024/03/12 00:52:46;;;;;;;55.75;27.20;;;;;;;;;;5081098;28;20038;-84
2024/03/12 00:55:16;;;;;;;50.30;27.63;;;;;;;;;;5064962;28;20036;-84
2024/03/12 00:57:42;;;;;;;48.22;27.05;;;;;;;;;;5061277;28;20561;-84
2024/03/12 01:03:17;;;;;;;44.55;25.30;;;;;;;;;;5037125;28;20047;-84
2024/03/12 01:05:42;;;;;;;50.05;26.02;;;;;;;;;;5059499;28;20032;-84
2024/03/12 01:08:10;;;;;;;53.22;27.95;;;;;;;;;;5066567;28;20036;-84
2024/03/12 01:10:37;;;;;;;50.25;27.58;;;;;;;;;;5064665;28;20081;-84
2024/03/12 01:13:08;;;;;;;50.47;25.58;;;;;;;;;;5062755;28;20036;-85
2024/03/12 01:15:34;;;;;;;43.30;25.63;;;;;;;;;;5062503;28;20941;-85
2024/03/12 01:18:00;;;;;;;51.42;26.40;;;;;;;;;;5065908;28;20032;-84
2024/03/12 01:20:27;;;;;;;47.45;26.45;;;;;;;;;;5064895;28;20059;-84
2024/03/12 01:22:57;;;;;;;50.35;25.48;;;;;;;;;;5063881;28;20032;-84
2024/03/12 01:25:29;;;;;;;51.85;26.73;;;;;;;;;;5060481;28;20055;-85
2024/03/12 01:27:59;;;;;;;48.05;24.75;;;;;;;;;;5057078;28;20036;-84
2024/03/12 01:30:30;;;;;;;53.22;26.15;;;;;;;;;;5066430;28;20467;-85
2024/03/12 01:32:57;;;;;;;52.90;25.05;;;;;;;;;;5061503;28;20021;-84
2024/03/12 01:35:30;;;;;;;51.55;26.25;;;;;;;;;;5059201;28;20110;-84
2024/03/12 01:37:57;;;;;;;54.80;26.17;;;;;;;;;;5061164;28;20023;-85
2024/03/12 01:40:25;;;;;;;49.50;26.55;;;;;;;;;;5065133;28;20535;-85
2024/03/12 01:43:06;;;;;;;48.13;26.10;;;;;;;;;;5059252;28;20480;-85
2024/03/12 01:45:33;;;;;;;48.60;24.52;;;;;;;;;;5059656;28;20044;-85
2024/03/12 01:48:06;;;;;;;51.80;25.17;;;;;;;;;;5062787;28;20035;-84
2024/03/12 01:50:34;;;;;;;51.47;25.95;;;;;;;;;;5063855;28;20479;-85
2024/03/12 01:53:10;;;;;;;45.83;24.65;;;;;;;;;;5063961;28;20025;-86
2024/03/12 01:55:38;;;;;;;44.13;23.80;;;;;;;;;;5059440;28;20032;-84
2024/03/12 01:58:04;;;;;;;44.33;24.13;;;;;;;;;;5060983;28;20033;-85
2024/03/12 02:00:32;;;;;;;48.78;24.77;;;;;;;;;;5064524;28;20074;-86
2024/03/12 02:05:26;;;;;;;42.47;23.17;;;;;;;;;;5007010;28;20057;-79
2024/03/12 02:07:55;;;;;;;44.28;23.02;;;;;;;;;;5007289;28;20403;-79
2024/03/12 02:10:21;;;;;;;42.97;23.17;;;;;;;;;;5011352;28;20034;-79
2024/03/12 02:12:47;;;;;;;43.38;23.13;;;;;;;;;;5007036;28;20424;-79
2024/03/12 02:15:13;;;;;;;47.97;24.30;;;;;;;;;;5008738;28;20403;-79
2024/03/12 02:17:40;;;;;;;50.90;24.63;;;;;;;;;;5007086;28;20026;-79
2024/03/12 02:20:08;;;;;;;46.15;24.02;;;;;;;;;;5005741;28;20080;-79
2024/03/12 02:22:35;;;;;;;43.88;24.05;;;;;;;;;;5009325;28;20135;-79
2024/03/12 02:25:04;;;;;;;46.70;24.50;;;;;;;;;;5005730;28;20049;-79
2024/03/12 02:27:29;;;;;;;46.88;23.90;;;;;;;;;;5005243;28;20075;-79
2024/03/12 02:29:55;;;;;;;42.63;23.20;;;;;;;;;;5011811;28;20022;-78
2024/03/12 02:32:22;;;;;;;48.17;24.30;;;;;;;;;;5009096;28;20405;-78
2024/03/12 02:34:51;;;;;;;46.53;23.00;;;;;;;;;;5007465;28;20021;-79
2024/03/12 02:37:17;;;;;;;43.53;23.30;;;;;;;;;;5009331;28;20041;-79
2024/03/12 02:39:42;;;;;;;43.53;23.13;;;;;;;;;;5007820;28;20026;-79
2024/03/12 02:42:08;;;;;;;48.85;22.58;;;;;;;;;;5025823;28;20484;-79
2024/03/12 02:44:34;;;;;;;45.20;22.88;;;;;;;;;;5007482;28;20034;-79
2024/03/12 02:47:02;;;;;;;43.50;23.25;;;;;;;;;;5007595;28;20037;-78
2024/03/12 02:49:28;;;;;;;51.13;23.83;;;;;;;;;;5006159;28;20096;-78
2024/03/12 02:51:54;;;;;;;40.47;21.45;;;;;;;;;;4997584;28;20038;-79
2024/03/12 02:54:20;;;;;;;45.13;22.83;;;;;;;;;;4986843;28;20089;-79
2024/03/12 02:56:47;;;;;;;39.58;21.80;;;;;;;;;;4987764;28;20081;-79
2024/03/12 02:59:13;;;;;;;41.53;20.73;;;;;;;;;;4990532;28;20136;-79
2024/03/12 03:01:39;;;;;;;41.17;20.92;;;;;;;;;;4990023;28;20488;-79
2024/03/12 03:04:04;;;;;;;37.75;21.00;;;;;;;;;;4983106;28;20061;-79
2024/03/12 03:06:30;;;;;;;36.28;19.88;;;;;;;;;;4986951;28;20475;-78
2024/03/12 03:08:58;;;;;;;36.17;20.27;;;;;;;;;;4988602;28;20034;-79
2024/03/12 03:11:24;;;;;;;37.17;18.98;;;;;;;;;;5003571;28;20121;-79
2024/03/12 03:13:50;;;;;;;34.28;20.00;;;;;;;;;;4986115;28;20085;-78
2024/03/12 03:16:15;;;;;;;38.15;20.80;;;;;;;;;;5004940;28;20018;-79
2024/03/12 03:18:41;;;;;;;33.75;19.75;;;;;;;;;;4986491;28;20065;-85
2024/03/12 03:21:08;;;;;;;33.55;19.20;;;;;;;;;;4987438;28;20491;-84
2024/03/12 03:23:39;;;;;;;38.28;19.83;;;;;;;;;;4989079;28;20019;-84
2024/03/12 03:26:04;;;;;;;36.85;18.52;;;;;;;;;;5003549;28;20018;-85
2024/03/12 03:28:30;;;;;;;39.33;19.38;;;;;;;;;;4984397;28;20498;-85
2024/03/12 03:30:58;;;;;;;40.53;20.65;;;;;;;;;;4990773;28;20127;-85
2024/03/12 03:33:24;;;;;;;36.15;18.90;;;;;;;;;;4986353;28;20597;-85
2024/03/12 03:35:51;;;;;;;44.05;20.92;;;;;;;;;;5002132;28;20026;-85
2024/03/12 03:38:17;;;;;;;44.53;20.63;;;;;;;;;;4989893;28;20057;-84
2024/03/12 03:40:43;;;;;;;45.60;20.08;;;;;;;;;;4987337;28;20065;-85
2024/03/12 03:43:08;;;;;;;45.45;20.30;;;;;;;;;;4987707;28;20050;-85
2024/03/12 03:45:34;;;;;;;40.20;20.23;;;;;;;;;;4987670;28;20503;-84
2024/03/12 03:47:59;;;;;;;42.40;19.77;;;;;;;;;;4987593;28;20042;-85
2024/03/12 03:50:25;;;;;;;41.05;20.27;;;;;;;;;;4985827;28;20124;-85
2024/03/12 03:52:52;;;;;;;40.88;18.75;;;;;;;;;;4988431;28;20054;-84
2024/03/12 03:55:21;;;;;;;34.15;17.35;;;;;;;;;;4982824;28;20030;-84
2024/03/12 03:57:50;;;;;;;32.78;18.05;;;;;;;;;;4986546;28;20050;-85
2024/03/12 04:00:17;;;;;;;32.75;17.50;;;;;;;;;;4985798;28;20050;-84
2024/03/12 04:02:44;;;;;;;35.10;18.67;;;;;;;;;;4985264;28;20077;-85
2024/03/12 04:05:11;;;;;;;32.67;18.65;;;;;;;;;;4985423;28;20116;-84
2024/03/12 04:07:36;;;;;;;33.65;17.30;;;;;;;;;;4988595;28;20022;-84
2024/03/12 04:10:02;;;;;;;31.52;17.15;;;;;;;;;;4990987;28;20397;-85
2024/03/12 04:12:28;;;;;;;37.72;19.17;;;;;;;;;;4984848;28;20026;-84
2024/03/12 04:14:54;;;;;;;37.42;19.77;;;;;;;;;;5002120;28;20784;-85
2024/03/12 04:17:19;;;;;;;37.17;19.05;;;;;;;;;;4985727;28;20026;-85
2024/03/12 04:19:47;;;;;;;37.63;18.48;;;;;;;;;;5000565;28;20076;-84
2024/03/12 04:22:14;;;;;;;38.15;19.05;;;;;;;;;;5000653;28;20049;-85
2024/03/12 04:24:39;;;;;;;38.08;18.38;;;;;;;;;;4987886;28;21049;-85
2024/03/12 04:27:05;;;;;;;33.05;18.95;;;;;;;;;;4985817;28;20029;-79
2024/03/12 04:29:30;;;;;;;38.00;19.67;;;;;;;;;;4985632;28;20445;-78
2024/03/12 04:31:55;;;;;;;34.58;18.15;;;;;;;;;;5000718;28;20026;-79
2024/03/12 04:34:21;;;;;;;37.90;18.77;;;;;;;;;;4985926;28;20044;-79
2024/03/12 04:36:46;;;;;;;35.35;19.35;;;;;;;;;;4986390;28;21093;-79
2024/03/12 04:39:30;;;;;;;37.15;18.60;;;;;;;;;;4985987;28;20037;-79
2024/03/12 04:42:05;;;;;;;37.22;18.48;;;;;;;;;;4986323;28;20038;-79
2024/03/12 04:44:31;;;;;;;35.83;19.20;;;;;;;;;;5001709;28;20124;-79
2024/03/12 04:46:56;;;;;;;39.03;19.35;;;;;;;;;;4985160;28;20038;-79
2024/03/12 04:49:22;;;;;;;38.05;20.00;;;;;;;;;;4986498;28;20035;-79
2024/03/12 04:51:47;;;;;;;35.50;18.58;;;;;;;;;;4986900;28;20018;-79
2024/03/12 04:54:12;;;;;;;33.42;18.50;;;;;;;;;;5001445;28;20030;-79
2024/03/12 04:56:38;;;;;;;37.70;19.45;;;;;;;;;;4987268;28;20034;-79
2024/03/12 04:59:03;;;;;;;39.00;19.83;;;;;;;;;;4986191;28;20038;-79
2024/03/12 05:01:29;;;;;;;41.70;19.98;;;;;;;;;;4985826;28;20400;-79
2024/03/12 05:03:55;;;;;;;38.58;20.08;;;;;;;;;;4985927;28;20065;-79
2024/03/12 05:06:20;;;;;;;36.17;19.13;;;;;;;;;;4987117;28;20033;-79
2024/03/12 05:08:46;;;;;;;42.22;19.38;;;;;;;;;;4999561;28;20039;-79
2024/03/12 05:11:14;;;;;;;37.00;19.23;;;;;;;;;;4985656;28;20037;-79
2024/03/12 05:13:41;;;;;;;40.17;19.45;;;;;;;;;;4985470;28;20118;-79
2024/03/12 05:16:07;;;;;;;40.20;18.88;;;;;;;;;;4985569;28;20412;-79
2024/03/12 05:18:32;;;;;;;40.03;19.05;;;;;;;;;;4985091;28;20026;-79
2024/03/12 05:20:58;;;;;;;39.55;17.88;;;;;;;;;;4986682;28;20460;-79
2024/03/12 05:23:23;;;;;;;35.30;17.20;;;;;;;;;;4985968;28;20095;-79
2024/03/12 05:25:51;;;;;;;37.25;17.33;;;;;;;;;;4985358;28;20418;-79
2024/03/12 05:28:19;;;;;;;33.92;16.35;;;;;;;;;;4987233;28;20030;-79
2024/03/12 05:30:45;;;;;;;35.42;17.90;;;;;;;;;;4983176;28;20030;-79
2024/03/12 05:33:14;;;;;;;34.00;17.45;;;;;;;;;;5000988;28;20161;-79
2024/03/12 05:35:47;;;;;;;38.03;18.73;;;;;;;;;;4986828;28;20088;-79
2024/03/12 05:38:22;;;;;;;;;;;;;;;;;;5001434;28;20027;-79
2024/03/12 05:40:57;;;;;;;40.05;17.05;;;;;;;;;;4983371;28;19921;-79
2024/03/12 05:48:52;;;;;;;33.42;16.73;;;;;;;;;;4984207;28;20032;-80
2024/03/12 05:51:18;;;;;;;35.97;17.40;;;;;;;;;;4982314;28;20026;-79
2024/03/12 05:53:44;;;;;;;39.20;17.70;;;;;;;;;;4984279;28;20049;-79
2024/03/12 05:56:10;;;;;;;37.80;16.42;;;;;;;;;;5001380;28;20022;-79
2024/03/12 05:58:36;;;;;;;32.78;16.13;;;;;;;;;;4984294;28;20030;-78
2024/03/12 06:01:04;;;;;;;34.25;15.68;;;;;;;;;;4997857;28;20026;-79
2024/03/12 06:03:31;;;;;;;38.30;16.08;;;;;;;;;;4999390;28;20693;-79
2024/03/12 06:05:57;;;;;;;37.78;15.77;;;;;;;;;;4987299;28;20076;-78
2024/03/12 06:08:24;;;;;;;37.70;16.40;;;;;;;;;;4990999;28;20042;-79
2024/03/12 06:10:50;;;;;;;33.70;14.90;;;;;;;;;;5000171;28;20058;-79
2024/03/12 06:13:16;;;;;;;35.20;16.08;;;;;;;;;;4984817;28;20069;-78
2024/03/12 06:15:41;;;;;;;34.83;15.57;;;;;;;;;;4985872;28;20084;-78
2024/03/12 06:18:07;;;;;;;38.40;16.17;;;;;;;;;;5000456;28;20484;-78
2024/03/12 06:20:32;;;;;;;39.50;15.30;;;;;;;;;;4982095;28;20388;-78
2024/03/12 06:22:58;;;;;;;37.42;15.60;;;;;;;;;;4985401;28;20061;-79
2024/03/12 06:25:23;;;;;;;38.67;15.52;;;;;;;;;;4985431;28;20053;-79
2024/03/12 06:27:49;;;;;;;35.55;15.38;;;;;;;;;;4984770;28;20042;-78
2024/03/12 06:30:15;;;;;;;31.08;14.40;;;;;;;;;;4984830;28;20667;-78
2024/03/12 06:32:41;;;;;;;31.25;13.82;;;;;;;;;;5000138;28;20325;-78
2024/03/12 06:35:07;;;;;;;35.65;15.13;;;;;;;;;;4988365;28;20560;-78
2024/03/12 06:37:33;;;;;;;33.05;15.23;;;;;;;;;;5000007;28;20027;-78
2024/03/12 06:39:59;;;;;;;34.75;14.88;;;;;;;;;;4983981;28;20030;-78
2024/03/12 06:42:29;;;;;;;32.08;15.13;;;;;;;;;;4984364;28;20081;-78
2024/03/12 06:44:56;;;;;;;32.85;14.63;;;;;;;;;;4982172;28;20031;-79
2024/03/12 06:47:24;;;;;;;31.98;15.52;;;;;;;;;;4984609;28;20022;-85
2024/03/12 06:49:49;;;;;;;30.85;13.50;;;;;;;;;;4985068;28;20042;-86
2024/03/12 06:52:15;;;;;;;28.20;13.52;;;;;;;;;;5004697;28;20036;-85
2024/03/12 06:54:44;;;;;;;26.35;13.10;;;;;;;;;;5003315;28;20440;-86
2024/03/12 06:57:10;;;;;;;31.95;14.65;;;;;;;;;;4991992;28;20029;-85
2024/03/12 06:59:37;;;;;;;29.70;14.20;;;;;;;;;;5017323;28;20110;-85
2024/03/12 07:02:03;;;;;;;33.00;14.13;;;;;;;;;;4991948;28;20121;-85
2024/03/12 07:04:44;;;;;;;30.95;13.65;;;;;;;;;;4987168;28;20076;-86
2024/03/12 07:07:11;;;;;;;33.60;14.10;;;;;;;;;;4987758;28;20030;-86
2024/03/12 07:09:41;;;;;;;31.30;13.88;;;;;;;;;;4993916;28;20040;-86
2024/03/12 07:12:08;;;;;;;26.77;13.15;;;;;;;;;;4990786;28;20023;-86
2024/03/12 07:14:41;;;;;;;27.15;13.35;;;;;;;;;;5010570;28;20038;-86
2024/03/12 07:17:07;;;;;;;29.08;12.68;;;;;;;;;;4993933;28;20479;-86
2024/03/12 07:19:40;;;;;;;26.63;13.00;;;;;;;;;;5013830;28;20563;-86
2024/03/12 07:22:08;;;;;;;26.13;13.73;;;;;;;;;;5011755;28;20058;-86
2024/03/12 07:24:35;;;;;;;26.33;12.75;;;;;;;;;;4997304;28;20331;-86
2024/03/12 07:27:01;;;;;;;29.77;12.82;;;;;;;;;;5004396;28;20030;-86
2024/03/12 07:29:26;;;;;;;28.25;13.40;;;;;;;;;;4991735;28;20511;-86
2024/03/12 07:31:52;;;;;;;30.00;13.13;;;;;;;;;;4993228;28;20049;-85
2024/03/12 07:34:18;;;;;;;23.90;11.75;;;;;;;;;;4993908;28;20066;-85
2024/03/12 07:36:44;;;;;;;26.40;12.75;;;;;;;;;;5008665;28;20041;-86
2024/03/12 07:39:19;;;;;;;30.58;12.70;;;;;;;;;;5009292;28;20030;-86
2024/03/12 07:41:44;;;;;;;26.52;12.77;;;;;;;;;;4993251;28;20033;-87
2024/03/12 07:44:10;;;;;;;24.58;12.65;;;;;;;;;;4996666;28;20762;-87
2024/03/12 07:46:36;;;;;;;24.10;12.63;;;;;;;;;;4993264;28;20477;-87
2024/03/12 07:49:02;;;;;;;26.50;12.35;;;;;;;;;;4999319;28;20037;-88
2024/03/12 07:51:29;;;;;;;24.92;12.38;;;;;;;;;;4993386;28;20117;-88
2024/03/12 07:53:54;;;;;;;22.33;12.18;;;;;;;;;;4995762;28;20026;-88
2024/03/12 07:56:23;;;;;;;29.35;12.85;;;;;;;;;;4992818;28;20496;-87
2024/03/12 07:58:49;;;;;;;25.73;12.18;;;;;;;;;;4998963;28;20041;-87
2024/03/12 08:01:14;;;;;;;24.40;13.75;;;;;;;;;;4994710;28;20392;-87
2024/03/12 08:03:40;;;;;;;24.27;12.57;;;;;;;;;;4996755;28;20044;-87
2024/03/12 08:06:05;;;;;;;26.63;12.35;;;;;;;;;;4992959;28;20404;-87
2024/03/12 08:08:30;;;;;;;25.92;13.52;;;;;;;;;;4999979;28;20072;-87
2024/03/12 08:10:57;;;;;;;26.45;13.35;;;;;;;;;;4981180;28;20036;-87
2024/03/12 08:13:22;;;;;;;26.17;12.85;;;;;;;;;;5003334;28;20026;-87
2024/03/12 08:15:48;;;;;;;28.73;13.45;;;;;;;;;;5004282;28;20052;-87
2024/03/12 08:18:13;;;;;;;26.88;12.95;;;;;;;;;;5018120;28;20025;-87
2024/03/12 08:20:39;;;;;;;25.02;13.13;;;;;;;;;;5012094;28;20185;-87
2024/03/12 08:23:04;;;;;;;28.00;12.73;;;;;;;;;;4997022;28;20401;-87
2024/03/12 08:25:31;;;;;;;26.27;13.07;;;;;;;;;;5009912;28;20038;-86
2024/03/12 08:27:57;;;;;;;27.73;13.23;;;;;;;;;;5007879;28;20031;-87
2024/03/12 08:30:22;;;;;;;28.67;14.45;;;;;;;;;;4993845;28;20034;-87
2024/03/12 08:32:50;;;;;;;24.38;13.02;;;;;;;;;;4992213;28;20034;-87
2024/03/12 08:35:18;;;;;;;30.40;14.82;;;;;;;;;;4989359;28;20061;-87
2024/03/12 08:37:43;;;;;;;27.23;13.75;;;;;;;;;;4991157;28;20021;-88
2024/03/12 08:40:12;;;;;;;27.35;14.75;;;;;;;;;;4993437;28;20407;-87
2024/03/12 08:42:38;;;;;;;28.38;14.43;;;;;;;;;;4997301;28;20032;-87
2024/03/12 08:45:04;;;;;;;28.42;14.05;;;;;;;;;;4994393;28;20022;-87
2024/03/12 08:47:29;;;;;;;26.88;13.75;;;;;;;;;;4999526;28;20392;-87
2024/03/12 08:49:55;;;;;;;27.52;14.05;;;;;;;;;;4994493;28;20035;-87
2024/03/12 08:52:21;;;;;;;26.77;14.45;;;;;;;;;;5001122;28;20034;-87
2024/03/12 08:54:47;;;;;;;28.58;13.90;;;;;;;;;;4994425;28;20034;-88
2024/03/12 08:57:12;;;;;;;24.02;13.85;;;;;;;;;;4994033;28;20512;-88
2024/03/12 08:59:38;;;;;;;26.88;13.65;;;;;;;;;;4990618;28;20118;-87
2024/03/12 09:02:05;;;;;;;25.88;13.32;;;;;;;;;;4992411;28;20038;-87
2024/03/12 09:04:31;;;;;;;32.60;14.27;;;;;;;;;;4995194;28;20042;-86
2024/03/12 09:07:00;;;;;;;31.52;14.57;;;;;;;;;;4993658;28;20435;-88
2024/03/12 09:09:26;;;;;;;28.30;13.68;;;;;;;;;;5001967;28;20105;-87
2024/03/12 09:11:53;;;;;;;28.63;15.02;;;;;;;;;;4996642;28;20100;-88
2024/03/12 09:14:21;;;;;;;27.80;14.55;;;;;;;;;;5010730;28;20038;-87
2024/03/12 09:16:48;;;;;;;24.50;14.38;;;;;;;;;;4999911;28;20025;-87
2024/03/12 09:19:13;;;;;;;26.88;14.52;;;;;;;;;;4995405;28;20033;-87
2024/03/12 09:21:39;;;;;;;26.83;14.30;;;;;;;;;;5004305;28;20022;-86
2024/03/12 09:24:05;;;;;;;31.30;14.88;;;;;;;;;;4994805;28;20133;-88
2024/03/12 09:26:32;;;;;;;31.83;16.35;;;;;;;;;;4998795;28;20034;-88
2024/03/12 09:28:57;;;;;;;27.33;14.93;;;;;;;;;;4999630;28;20421;-89
2024/03/12 09:31:23;;;;;;;28.42;14.93;;;;;;;;;;4998320;28;20116;-87
2024/03/12 09:33:49;;;;;;;29.67;15.23;;;;;;;;;;5005845;28;20033;-86
2024/03/12 09:36:14;;;;;;;34.90;16.42;;;;;;;;;;4986953;28;20030;-84
2024/03/12 09:38:40;;;;;;;31.63;16.42;;;;;;;;;;4988289;28;20049;-85
2024/03/12 09:41:10;;;;;;;34.40;16.90;;;;;;;;;;5000795;28;20034;-84
2024/03/12 09:43:37;;;;;;;33.15;16.45;;;;;;;;;;5000563;28;20037;-84
2024/03/12 09:46:03;;;;;;;35.20;17.08;;;;;;;;;;5008733;28;20113;-84
2024/03/12 09:48:30;;;;;;;30.58;15.60;;;;;;;;;;4993588;28;20031;-84
2024/03/12 09:50:56;;;;;;;30.13;15.80;;;;;;;;;;4996438;28;20034;-84
2024/03/12 09:53:23;;;;;;;27.92;16.00;;;;;;;;;;5001867;28;20484;-85
2024/03/12 09:55:49;;;;;;;30.88;15.75;;;;;;;;;;5001665;28;20033;-84
2024/03/12 09:58:16;;;;;;;31.23;15.95;;;;;;;;;;4991478;28;20523;-84
2024/03/12 10:00:41;;;;;;;34.10;16.45;;;;;;;;;;4997646;28;20118;-84
2024/03/12 10:03:08;;;;;;;31.42;15.85;;;;;;;;;;4999731;28;20109;-84
2024/03/12 10:05:33;;;;;;;33.85;16.98;;;;;;;;;;4998702;28;20034;-85
2024/03/12 10:08:15;;;;;;;31.08;15.85;;;;;;;;;;4997506;28;20102;-85
2024/03/12 10:10:43;;;;;;;33.08;16.23;;;;;;;;;;4994854;28;20088;-84
2024/03/12 10:13:14;;;;;;;30.75;16.13;;;;;;;;;;4998772;28;20276;-85
2024/03/12 10:15:56;;;;;;;31.40;15.85;;;;;;;;;;5000124;28;20048;-85
2024/03/12 10:18:24;;;;;;;31.50;16.08;;;;;;;;;;4991148;28;20034;-77
2024/03/12 10:21:01;;;;;;;31.90;16.08;;;;;;;;;;4997623;28;20361;-77
2024/03/12 10:23:31;;;;;;;32.85;15.98;;;;;;;;;;4992858;28;20089;-77
2024/03/12 10:26:18;;;;;;;33.92;16.67;;;;;;;;;;5015213;28;20022;-77
2024/03/12 10:28:45;;;;;;;33.60;17.00;;;;;;;;;;4998046;28;20098;-77
2024/03/12 10:31:12;;;;;;;32.63;17.02;;;;;;;;;;5001022;28;20045;-77
2024/03/12 10:33:42;;;;;;;33.00;16.83;;;;;;;;;;4995729;28;20030;-77
2024/03/12 10:36:10;;;;;;;30.38;16.23;;;;;;;;;;4997654;28;20022;-77
2024/03/12 10:38:36;;;;;;;31.05;16.75;;;;;;;;;;5009623;28;20459;-77
2024/03/12 10:41:20;;;;;;;31.27;16.83;;;;;;;;;;4999859;28;20026;-77
2024/03/12 10:43:54;;;;;;;31.92;16.58;;;;;;;;;;5018433;28;20038;-77
2024/03/12 10:46:21;;;;;;;35.33;17.20;;;;;;;;;;5015619;28;20076;-77
2024/03/12 10:48:48;;;;;;;34.92;16.45;;;;;;;;;;4999673;28;20036;-77
2024/03/12 10:51:15;;;;;;;32.17;17.38;;;;;;;;;;5003289;28;20034;-77
2024/03/12 10:53:42;;;;;;;33.15;17.20;;;;;;;;;;5018130;28;20042;-77
2024/03/12 10:56:09;;;;;;;34.30;18.23;;;;;;;;;;5007046;28;20026;-77
2024/03/12 10:58:39;;;;;;;37.17;18.05;;;;;;;;;;5001879;28;20105;-77
2024/03/12 11:01:05;;;;;;;35.40;18.00;;;;;;;;;;5000738;28;20488;-77
2024/03/12 11:03:33;;;;;;;35.53;18.30;;;;;;;;;;4994297;28;20041;-77
2024/03/12 11:06:00;;;;;;;34.90;18.40;;;;;;;;;;4996961;28;20025;-77
2024/03/12 11:08:26;;;;;;;33.45;17.15;;;;;;;;;;4992592;28;20041;-77
2024/03/12 11:10:52;;;;;;;37.63;18.75;;;;;;;;;;5014336;28;20170;-77
2024/03/12 11:13:20;;;;;;;37.25;18.95;;;;;;;;;;4995442;28;20033;-77
2024/03/12 11:15:46;;;;;;;37.60;19.40;;;;;;;;;;5013516;28;20061;-77
2024/03/12 11:18:13;;;;;;;38.70;18.98;;;;;;;;;;4998833;28;20033;-77
2024/03/12 11:20:41;;;;;;;36.03;18.45;;;;;;;;;;5004352;28;20032;-77
2024/03/12 11:23:07;;;;;;;32.65;17.98;;;;;;;;;;4999227;28;20095;-77
2024/03/12 11:25:43;;;;;;;38.72;19.67;;;;;;;;;;5005391;28;20116;-77
2024/03/12 11:28:20;;;;;;;34.08;19.77;;;;;;;;;;5001594;28;20485;-85
2024/03/12 11:30:47;;;;;;;37.58;20.08;;;;;;;;;;4998134;28;20042;-85
2024/03/12 11:33:38;;;;;;;37.47;20.48;;;;;;;;;;4990045;28;20045;-84
2024/03/12 11:36:05;;;;;;;39.03;20.45;;;;;;;;;;4994246;28;20088;-85
2024/03/12 11:38:30;;;;;;;37.90;20.05;;;;;;;;;;5004916;28;20040;-85
2024/03/12 11:40:55;;;;;;;36.13;20.48;;;;;;;;;;5008316;28;20014;-85
2024/03/12 11:43:35;;;;;;;36.83;19.92;;;;;;;;;;4993193;28;20029;-85
2024/03/12 11:46:01;;;;;;;40.53;19.58;;;;;;;;;;5009701;28;20084;-85
2024/03/12 11:48:33;;;;;;;41.15;21.02;;;;;;;;;;5002599;28;20034;-85
2024/03/12 11:50:59;;;;;;;36.88;20.58;;;;;;;;;;4997474;28;20058;-85
2024/03/12 11:53:32;;;;;;;39.92;20.83;;;;;;;;;;5017005;28;20066;-85
2024/03/12 11:56:00;;;;;;;;;;;;;;;;;;4994471;28;20080;-85
2024/03/12 11:58:31;;;;;;;36.83;19.60;;;;;;;;;;5006331;28;19968;-86
2024/03/12 12:00:57;;;;;;;40.70;20.77;;;;;;;;;;4997249;28;20126;-85
2024/03/12 12:03:23;;;;;;;37.83;19.13;;;;;;;;;;4992310;28;20034;-85
2024/03/12 12:05:50;;;;;;;39.50;19.88;;;;;;;;;;4994182;28;20094;-85
2024/03/12 12:08:18;;;;;;;39.85;20.15;;;;;;;;;;4993973;28;20106;-85
2024/03/12 12:11:05;;;;;;;40.80;20.88;;;;;;;;;;4999781;28;20052;-86
2024/03/12 12:13:32;;;;;;;39.75;20.75;;;;;;;;;;4997111;28;20022;-86
2024/03/12 12:16:04;;;;;;;41.72;22.80;;;;;;;;;;4990988;28;20018;-86
2024/03/12 12:18:31;;;;;;;41.15;21.35;;;;;;;;;;4995100;28;20041;-85
2024/03/12 12:21:08;;;;;;;43.92;22.02;;;;;;;;;;4999851;28;20032;-86
2024/03/12 12:23:36;;;;;;;37.70;20.83;;;;;;;;;;5014123;28;20029;-85
2024/03/12 12:26:05;;;;;;;41.35;20.95;;;;;;;;;;4996882;28;20036;-86
2024/03/12 12:28:31;;;;;;;44.28;21.05;;;;;;;;;;5000301;28;20105;-85
2024/03/12 12:31:00;;;;;;;39.53;20.90;;;;;;;;;;4997898;28;20026;-86
2024/03/12 12:33:28;;;;;;;38.30;20.85;;;;;;;;;;4996962;28;20030;-84
2024/03/12 12:35:55;;;;;;;44.10;22.63;;;;;;;;;;5023356;28;20045;-86
2024/03/12 12:38:21;;;;;;;46.78;20.90;;;;;;;;;;4999558;28;20026;-87
2024/03/12 12:40:48;;;;;;;36.80;19.83;;;;;;;;;;5007566;28;20105;-86
2024/03/12 12:43:17;;;;;;;37.97;19.80;;;;;;;;;;4995086;28;20031;-86
2024/03/12 12:45:46;;;;;;;41.00;20.13;;;;;;;;;;4993748;28;20054;-86
2024/03/12 12:48:13;;;;;;;37.00;19.95;;;;;;;;;;5022985;28;20053;-86
2024/03/12 12:50:39;;;;;;;41.72;21.58;;;;;;;;;;5001155;28;20026;-86
2024/03/12 12:53:04;;;;;;;39.00;20.85;;;;;;;;;;4997048;28;20391;-86
2024/03/12 12:55:30;;;;;;;39.33;21.75;;;;;;;;;;5008437;28;20026;-87
2024/03/12 12:58:08;;;;;;;39.85;21.40;;;;;;;;;;4995192;28;20026;-85
2024/03/12 13:00:37;;;;;;;41.08;20.67;;;;;;;;;;4992357;28;20026;-86
2024/03/12 13:03:17;;;;;;;39.20;21.15;;;;;;;;;;4998715;28;20053;-85
2024/03/12 13:05:44;;;;;;;39.58;21.73;;;;;;;;;;4990055;28;20025;-86
2024/03/12 13:08:20;;;;;;;41.72;20.92;;;;;;;;;;4997372;28;20042;-87
2024/03/12 13:11:04;;;;;;;39.00;21.17;;;;;;;;;;4994456;28;20444;-87
2024/03/12 13:13:33;;;;;;;39.47;21.80;;;;;;;;;;5010188;28;20485;-87
2024/03/12 13:16:17;;;;;;;40.80;21.85;;;;;;;;;;4981603;28;20058;-86
2024/03/12 13:18:44;;;;;;;42.28;22.40;;;;;;;;;;5010187;28;20617;-86
2024/03/12 13:21:14;;;;;;;41.78;22.52;;;;;;;;;;5003213;28;20037;-86
2024/03/12 13:23:46;;;;;;;41.63;22.05;;;;;;;;;;5000214;28;20494;-86
2024/03/12 13:26:15;;;;;;;38.25;21.20;;;;;;;;;;4993610;28;20467;-86
2024/03/12 13:28:41;;;;;;;40.33;22.98;;;;;;;;;;4998722;28;20509;-87
2024/03/12 13:31:08;;;;;;;38.47;21.90;;;;;;;;;;4994460;28;20033;-87
2024/03/12 13:33:33;;;;;;;42.75;23.23;;;;;;;;;;5006174;28;20031;-87
2024/03/12 13:35:59;;;;;;;43.75;23.33;;;;;;;;;;4993274;28;20451;-86
2024/03/12 13:38:26;;;;;;;39.85;22.52;;;;;;;;;;5015915;28;20506;-86
2024/03/12 13:40:52;;;;;;;41.95;22.20;;;;;;;;;;4996631;28;20029;-88
2024/03/12 13:43:20;;;;;;;42.47;21.90;;;;;;;;;;5001798;28;20495;-87
2024/03/12 13:45:48;;;;;;;42.38;22.45;;;;;;;;;;4986078;28;20058;-85
2024/03/12 13:48:14;;;;;;;42.28;21.38;;;;;;;;;;4998250;28;20049;-77
2024/03/12 13:50:43;;;;;;;44.25;22.45;;;;;;;;;;4989998;28;20022;-77
2024/03/12 13:53:09;;;;;;;43.08;22.33;;;;;;;;;;4992449;28;20101;-77
2024/03/12 13:55:35;;;;;;;43.92;21.92;;;;;;;;;;4993833;28;20061;-77
2024/03/12 13:58:00;;;;;;;49.22;22.23;;;;;;;;;;4991927;28;20050;-77
2024/03/12 14:00:27;;;;;;;38.28;21.38;;;;;;;;;;4991994;28;20032;-77
2024/03/12 14:02:53;;;;;;;41.30;20.70;;;;;;;;;;5010874;28;20022;-77
2024/03/12 14:05:20;;;;;;;39.45;20.48;;;;;;;;;;4998316;28;20042;-77
2024/03/12 14:07:46;;;;;;;40.78;21.17;;;;;;;;;;5001831;28;20026;-77
2024/03/12 14:10:11;;;;;;;39.60;20.50;;;;;;;;;;4996852;28;20245;-77
2024/03/12 14:12:37;;;;;;;42.38;21.95;;;;;;;;;;4999776;28;20457;-77
2024/03/12 14:15:06;;;;;;;37.95;20.77;;;;;;;;;;4995351;28;20034;-77
2024/03/12 14:17:31;;;;;;;41.53;21.58;;;;;;;;;;4987812;28;20030;-77
2024/03/12 14:19:57;;;;;;;42.92;21.02;;;;;;;;;;4992729;28;20030;-77
2024/03/12 14:22:25;;;;;;;37.67;21.52;;;;;;;;;;4994603;28;20034;-77
2024/03/12 14:24:51;;;;;;;40.03;21.05;;;;;;;;;;4995796;28;20022;-77
2024/03/12 14:27:17;;;;;;;40.47;20.90;;;;;;;;;;5001129;28;20392;-77
2024/03/12 14:29:46;;;;;;;38.67;20.15;;;;;;;;;;5009704;28;20036;-77
2024/03/12 14:32:11;;;;;;;38.67;20.95;;;;;;;;;;4993735;28;20026;-78